createdAt,value
2023-05-12T00:00:56.884Z,503.00
2023-05-12T00:01:56.882Z,504.00
2023-05-12T00:02:56.943Z,505.00
2023-05-12T00:03:57.156Z,505.00
2023-05-12T00:04:56.929Z,506.00
2023-05-12T00:05:56.905Z,508.00
2023-05-12T00:06:56.885Z,504.00
2023-05-12T00:07:56.897Z,505.00
2023-05-12T00:08:56.896Z,506.00
2023-05-12T00:09:56.911Z,506.00
2023-05-12T00:10:56.941Z,507.00
2023-05-12T00:11:56.897Z,503.00
2023-05-12T00:12:56.903Z,509.00
2023-05-12T00:13:56.937Z,508.00
2023-05-12T00:14:56.896Z,508.00
2023-05-12T00:15:56.986Z,510.00
2023-05-12T00:16:56.988Z,510.00
2023-05-12T00:17:56.904Z,507.00
2023-05-12T00:18:56.968Z,508.00
2023-05-12T00:19:56.896Z,511.00
2023-05-12T00:20:56.898Z,508.00
2023-05-12T00:21:56.901Z,503.00
2023-05-12T00:22:56.938Z,501.00
2023-05-12T00:23:56.976Z,510.00
2023-05-12T00:24:57.002Z,505.00
2023-05-12T00:25:57.060Z,510.00
2023-05-12T00:26:57.074Z,512.00
2023-05-12T00:27:57.139Z,509.00
2023-05-12T00:28:57.160Z,510.00
2023-05-12T00:29:57.195Z,511.00
2023-05-12T00:30:57.226Z,510.00
2023-05-12T00:31:57.379Z,505.00
2023-05-12T00:32:57.381Z,508.00
2023-05-12T00:33:57.341Z,512.00
2023-05-12T00:34:57.382Z,510.00
2023-05-12T00:35:57.417Z,505.00
2023-05-12T00:36:57.459Z,511.00
2023-05-12T00:37:57.483Z,505.00
2023-05-12T00:38:57.519Z,510.00
2023-05-12T00:39:57.556Z,513.00
2023-05-12T00:40:57.594Z,510.00
2023-05-12T00:41:57.646Z,505.00
2023-05-12T00:42:57.668Z,513.00
2023-05-12T00:43:57.664Z,513.00
2023-05-12T00:44:57.663Z,513.00
2023-05-12T00:45:57.703Z,512.00
2023-05-12T00:46:57.664Z,514.00
2023-05-12T00:47:57.730Z,509.00
2023-05-12T00:48:57.674Z,510.00
2023-05-12T00:49:57.677Z,509.00
2023-05-12T00:50:57.693Z,513.00
2023-05-12T00:51:57.682Z,513.00
2023-05-12T00:52:57.675Z,511.00
2023-05-12T00:53:57.689Z,511.00
2023-05-12T00:54:57.681Z,509.00
2023-05-12T00:55:57.702Z,505.00
2023-05-12T00:56:57.676Z,508.00
2023-05-12T00:57:57.718Z,506.00
2023-05-12T00:58:57.767Z,512.00
2023-05-12T00:59:57.774Z,512.00
2023-05-12T01:00:57.866Z,512.00
2023-05-12T01:01:57.773Z,512.00
2023-05-12T01:04:16.627Z,500.00
2023-05-12T01:05:16.626Z,500.00
2023-05-12T01:06:16.636Z,500.00
2023-05-12T01:07:16.598Z,500.00
2023-05-12T01:08:16.593Z,500.00
2023-05-12T01:09:16.632Z,500.00
2023-05-12T01:10:16.611Z,500.00
2023-05-12T01:11:16.538Z,500.00
2023-05-12T01:12:16.534Z,503.00
2023-05-12T01:13:16.500Z,501.00
2023-05-12T01:14:16.501Z,502.00
2023-05-12T01:15:16.484Z,502.00
2023-05-12T01:16:16.533Z,509.00
2023-05-12T01:17:16.609Z,503.00
2023-05-12T01:18:16.624Z,500.00
2023-05-12T01:19:16.764Z,502.00
2023-05-12T01:20:16.848Z,505.00
2023-05-12T01:21:16.738Z,502.00
2023-05-12T01:22:16.765Z,505.00
2023-05-12T01:23:16.808Z,503.00
2023-05-12T01:24:16.860Z,505.00
2023-05-12T01:25:16.905Z,506.00
2023-05-12T01:26:16.947Z,502.00
2023-05-12T01:27:17.000Z,508.00
2023-05-12T01:28:17.068Z,506.00
2023-05-12T01:29:17.081Z,504.00
2023-05-12T01:30:17.125Z,503.00
2023-05-12T01:31:18.926Z,506.00
2023-05-12T01:32:17.150Z,513.00
2023-05-12T01:33:17.156Z,508.00
2023-05-12T01:34:17.145Z,506.00
2023-05-12T01:35:17.120Z,509.00
2023-05-12T01:36:17.143Z,500.00
2023-05-12T01:37:17.116Z,508.00
2023-05-12T01:38:17.091Z,506.00
2023-05-12T01:39:17.079Z,506.00
2023-05-12T01:40:17.182Z,506.00
2023-05-12T01:41:17.075Z,507.00
2023-05-12T01:42:17.045Z,508.00
2023-05-12T01:43:17.039Z,509.00
2023-05-12T01:44:17.026Z,511.00
2023-05-12T01:45:17.017Z,510.00
2023-05-12T01:46:17.071Z,506.00
2023-05-12T01:47:17.003Z,512.00
2023-05-12T01:48:17.002Z,506.00
2023-05-12T01:49:17.012Z,507.00
2023-05-12T01:50:17.144Z,510.00
2023-05-12T01:51:17.106Z,509.00
2023-05-12T01:52:17.145Z,511.00
2023-05-12T01:53:17.213Z,503.00
2023-05-12T01:54:17.199Z,504.00
2023-05-12T01:55:17.178Z,504.00
2023-05-12T01:56:17.182Z,505.00
2023-05-12T01:57:17.168Z,505.00
2023-05-12T01:58:17.155Z,506.00
2023-05-12T01:59:17.152Z,511.00
2023-05-12T02:00:17.157Z,508.00
2023-05-12T02:01:17.158Z,504.00
2023-05-12T02:02:17.131Z,504.00
2023-05-12T02:03:17.203Z,507.00
2023-05-12T02:04:17.220Z,506.00
2023-05-12T02:05:17.251Z,505.00
2023-05-12T02:06:17.308Z,505.00
2023-05-12T02:07:17.363Z,508.00
2023-05-12T02:08:17.420Z,510.00
2023-05-12T02:09:17.391Z,510.00
2023-05-12T02:10:17.578Z,510.00
2023-05-12T02:11:17.386Z,506.00
2023-05-12T02:12:17.375Z,510.00
2023-05-12T02:13:17.368Z,505.00
2023-05-12T02:14:17.368Z,506.00
2023-05-12T02:15:17.357Z,510.00
2023-05-12T02:16:17.395Z,506.00
2023-05-12T02:17:17.357Z,501.00
2023-05-12T02:18:17.357Z,507.00
2023-05-12T02:19:17.404Z,504.00
2023-05-12T02:20:17.584Z,504.00
2023-05-12T02:21:17.411Z,505.00
2023-05-12T02:22:17.370Z,506.00
2023-05-12T02:23:17.359Z,507.00
2023-05-12T02:24:17.344Z,508.00
2023-05-12T02:25:17.352Z,503.00
2023-05-12T02:26:17.333Z,504.00
2023-05-12T02:27:17.313Z,505.00
2023-05-12T02:28:17.312Z,506.00
2023-05-12T02:29:17.281Z,506.00
2023-05-12T02:30:17.344Z,509.00
2023-05-12T02:31:17.254Z,506.00
2023-05-12T02:32:17.260Z,503.00
2023-05-12T02:33:17.240Z,503.00
2023-05-12T02:34:17.261Z,502.00
2023-05-12T02:35:17.298Z,506.00
2023-05-12T02:36:17.359Z,502.00
2023-05-12T02:37:17.402Z,507.00
2023-05-12T02:38:17.456Z,509.00
2023-05-12T02:39:17.522Z,507.00
2023-05-12T02:40:17.674Z,500.00
2023-05-12T02:41:17.635Z,505.00
2023-05-12T02:42:17.681Z,506.00
2023-05-12T02:43:17.729Z,505.00
2023-05-12T02:44:17.781Z,504.00
2023-05-12T02:45:17.839Z,503.00
2023-05-12T02:46:17.999Z,505.00
2023-05-12T02:47:17.947Z,506.00
2023-05-12T02:48:18.018Z,504.00
2023-05-12T02:49:18.068Z,507.00
2023-05-12T02:50:18.192Z,506.00
2023-05-12T02:51:18.173Z,504.00
2023-05-12T02:52:18.249Z,508.00
2023-05-12T02:53:18.316Z,502.00
2023-05-12T02:54:18.343Z,507.00
2023-05-12T02:55:18.422Z,512.00
2023-05-12T02:56:18.459Z,505.00
2023-05-12T02:57:18.461Z,506.00
2023-05-12T02:58:18.445Z,506.00
2023-05-12T02:59:18.432Z,507.00
2023-05-12T03:00:18.564Z,502.00
2023-05-12T03:01:18.442Z,512.00
2023-05-12T03:02:18.449Z,507.00
2023-05-12T03:03:18.464Z,507.00
2023-05-12T03:04:18.380Z,504.00
2023-05-12T03:05:18.417Z,505.00
2023-05-12T03:06:18.467Z,508.00
2023-05-12T03:07:18.544Z,504.00
2023-05-12T03:08:18.584Z,500.00
2023-05-12T03:09:18.648Z,508.00
2023-05-12T03:10:19.042Z,507.00
2023-05-12T03:11:18.751Z,507.00
2023-05-12T03:12:18.825Z,505.00
2023-05-12T03:13:18.877Z,506.00
2023-05-12T03:14:18.953Z,505.00
2023-05-12T03:15:19.012Z,500.00
2023-05-12T03:16:19.826Z,506.00
2023-05-12T03:17:19.265Z,503.00
2023-05-12T03:18:19.171Z,505.00
2023-05-12T03:19:19.228Z,505.00
2023-05-12T03:20:19.697Z,503.00
2023-05-12T03:21:19.344Z,502.00
2023-05-12T03:22:19.391Z,505.00
2023-05-12T03:23:19.439Z,505.00
2023-05-12T03:24:19.514Z,505.00
2023-05-12T03:25:19.552Z,506.00
2023-05-12T03:26:19.621Z,504.00
2023-05-12T03:27:19.673Z,506.00
2023-05-12T03:28:19.733Z,505.00
2023-05-12T03:29:19.780Z,500.00
2023-05-12T03:30:20.112Z,501.00
2023-05-12T03:31:19.909Z,502.00
2023-05-12T03:32:20.024Z,503.00
2023-05-12T03:33:20.037Z,507.00
2023-05-12T03:34:20.067Z,509.00
2023-05-12T03:35:20.122Z,506.00
2023-05-12T03:36:20.185Z,507.00
2023-05-12T03:37:20.247Z,508.00
2023-05-12T03:38:20.298Z,500.00
2023-05-12T03:39:20.380Z,502.00
2023-05-12T03:40:20.696Z,506.00
2023-05-12T03:41:20.471Z,506.00
2023-05-12T03:42:20.531Z,504.00
2023-05-12T03:43:20.597Z,505.00
2023-05-12T03:44:20.653Z,506.00
2023-05-12T03:45:20.696Z,504.00
2023-05-12T03:46:20.789Z,504.00
2023-05-12T03:47:20.791Z,504.00
2023-05-12T03:48:20.777Z,505.00
2023-05-12T03:49:20.750Z,506.00
2023-05-12T03:50:20.916Z,505.00
2023-05-12T03:51:20.718Z,500.00
2023-05-12T03:52:20.713Z,504.00
2023-05-12T03:53:20.711Z,503.00
2023-05-12T03:54:20.708Z,506.00
2023-05-12T03:55:20.840Z,502.00
2023-05-12T03:56:20.827Z,500.00
2023-05-12T03:57:20.878Z,502.00
2023-05-12T03:58:20.922Z,505.00
2023-05-12T03:59:20.977Z,502.00
2023-05-12T04:00:21.204Z,503.00
2023-05-12T04:01:21.111Z,504.00
2023-05-12T04:02:21.211Z,504.00
2023-05-12T04:03:21.274Z,501.00
2023-05-12T04:04:21.273Z,505.00
2023-05-12T04:05:21.333Z,505.00
2023-05-12T04:06:21.380Z,504.00
2023-05-12T04:07:21.456Z,501.00
2023-05-12T04:08:21.493Z,506.00
2023-05-12T04:09:21.486Z,506.00
2023-05-12T04:10:21.656Z,506.00
2023-05-12T04:11:21.467Z,506.00
2023-05-12T04:12:21.471Z,505.00
2023-05-12T04:13:21.462Z,502.00
2023-05-12T04:14:29.030Z,504.00
2023-05-12T04:15:22.469Z,504.00
2023-05-12T04:16:21.495Z,505.00
2023-05-12T04:17:21.473Z,505.00
2023-05-12T04:18:21.473Z,505.00
2023-05-12T04:19:21.437Z,506.00
2023-05-12T04:20:21.651Z,502.00
2023-05-12T04:21:21.443Z,501.00
2023-05-12T04:22:23.446Z,508.00
2023-05-12T04:23:21.423Z,509.00
2023-05-12T04:24:21.407Z,507.00
2023-05-12T04:25:21.416Z,507.00
2023-05-12T04:26:21.393Z,506.00
2023-05-12T04:27:21.382Z,504.00
2023-05-12T04:28:21.386Z,504.00
2023-05-12T04:29:21.378Z,505.00
2023-05-12T04:30:21.506Z,507.00
2023-05-12T04:31:21.441Z,500.00
2023-05-12T04:32:21.431Z,501.00
2023-05-12T04:33:21.338Z,504.00
2023-05-12T04:34:21.386Z,503.00
2023-05-12T04:35:21.336Z,500.00
2023-05-12T04:36:21.333Z,506.00
2023-05-12T04:37:21.323Z,502.00
2023-05-12T04:38:21.317Z,505.00
2023-05-12T04:39:21.317Z,504.00
2023-05-12T04:40:21.535Z,506.00
2023-05-12T04:41:21.303Z,507.00
2023-05-12T04:42:21.305Z,505.00
2023-05-12T04:44:21.286Z,506.00
2023-05-12T04:45:21.519Z,507.00
2023-05-12T04:46:21.303Z,509.00
2023-05-12T04:47:21.272Z,508.00
2023-05-12T04:48:21.247Z,509.00
2023-05-12T04:49:21.244Z,506.00
2023-05-12T04:50:21.256Z,506.00
2023-05-12T04:51:21.243Z,503.00
2023-05-12T04:52:21.283Z,500.00
2023-05-12T04:53:21.230Z,503.00
2023-05-12T04:54:21.244Z,504.00
2023-05-12T04:55:21.502Z,505.00
2023-05-12T04:56:21.205Z,500.00
2023-05-12T04:57:21.196Z,506.00
2023-05-12T04:58:21.201Z,506.00
2023-05-12T04:59:21.215Z,505.00
2023-05-12T05:00:21.189Z,504.00
2023-05-12T05:01:21.217Z,505.00
2023-05-12T05:02:21.231Z,502.00
2023-05-12T05:03:21.354Z,502.00
2023-05-12T05:04:21.171Z,501.00
2023-05-12T05:05:21.341Z,505.00
2023-05-12T05:06:21.154Z,507.00
2023-05-12T05:07:21.159Z,503.00
2023-05-12T05:08:21.143Z,505.00
2023-05-12T05:09:21.134Z,503.00
2023-05-12T05:10:21.134Z,503.00
2023-05-12T05:11:21.118Z,504.00
2023-05-12T05:12:21.133Z,505.00
2023-05-12T05:13:21.122Z,504.00
2023-05-12T05:14:21.119Z,504.00
2023-05-12T05:15:21.307Z,502.00
2023-05-12T05:16:21.139Z,501.00
2023-05-12T05:17:21.113Z,503.00
2023-05-12T05:18:23.852Z,502.00
2023-05-12T05:19:30.153Z,506.00
2023-05-12T05:20:27.881Z,506.00
2023-05-12T05:21:22.151Z,507.00
2023-05-12T05:22:21.092Z,509.00
2023-05-12T05:23:21.082Z,510.00
2023-05-12T05:24:21.077Z,511.00
2023-05-12T05:25:21.222Z,508.00
2023-05-12T05:26:21.087Z,507.00
2023-05-12T05:27:21.091Z,507.00
2023-05-12T05:28:21.106Z,507.00
2023-05-12T05:29:21.091Z,503.00
2023-05-12T05:30:21.091Z,502.00
2023-05-12T05:31:21.115Z,503.00
2023-05-12T05:32:21.092Z,503.00
2023-05-12T05:33:21.102Z,503.00
2023-05-12T05:34:21.089Z,504.00
2023-05-12T05:35:21.334Z,503.00
2023-05-12T05:36:21.044Z,503.00
2023-05-12T05:37:21.042Z,506.00
2023-05-12T05:38:21.019Z,504.00
2023-05-12T05:39:21.049Z,506.00
2023-05-12T05:40:21.035Z,518.00
2023-05-12T05:41:21.057Z,530.00
2023-05-12T05:42:21.117Z,542.00
2023-05-12T05:43:21.201Z,560.00
2023-05-12T05:44:21.228Z,624.00
2023-05-12T05:45:21.489Z,684.00
2023-05-12T05:46:21.409Z,666.00
2023-05-12T05:47:21.389Z,689.00
2023-05-12T05:48:21.404Z,720.00
2023-05-12T05:49:21.441Z,793.00
2023-05-12T05:50:21.476Z,882.00
2023-05-12T05:51:21.505Z,899.00
2023-05-12T05:52:21.515Z,979.00
2023-05-12T05:53:21.543Z,1042.00
2023-05-12T05:54:21.553Z,1105.00
2023-05-12T05:55:21.729Z,1140.00
2023-05-12T05:56:21.577Z,1142.00
2023-05-12T05:57:21.546Z,1149.00
2023-05-12T05:58:21.514Z,1175.00
2023-05-12T05:59:21.534Z,1223.00
2023-05-12T06:00:21.536Z,1293.00
2023-05-12T06:01:21.488Z,1350.00
2023-05-12T06:02:21.549Z,1387.00
2023-05-12T06:03:21.529Z,1414.00
2023-05-12T06:04:21.556Z,1442.00
2023-05-12T06:05:21.681Z,1482.00
2023-05-12T06:06:21.431Z,1527.00
2023-05-12T06:07:22.319Z,1564.00
2023-05-12T06:08:21.442Z,1586.00
2023-05-12T06:09:21.438Z,1606.00
2023-05-12T06:10:21.644Z,1618.00
2023-05-12T06:11:21.407Z,1641.00
2023-05-12T06:12:21.407Z,1676.00
2023-05-12T06:13:21.439Z,1684.00
2023-05-12T06:14:21.389Z,1714.00
2023-05-12T06:15:21.620Z,1724.00
2023-05-12T06:16:21.449Z,1763.00
2023-05-12T06:17:21.383Z,1777.00
2023-05-12T06:18:21.435Z,1790.00
2023-05-12T06:19:21.313Z,1792.00
2023-05-12T06:20:21.310Z,1807.00
2023-05-12T06:21:21.294Z,1841.00
2023-05-12T06:22:21.985Z,1861.00
2023-05-12T06:23:21.277Z,1885.00
2023-05-12T06:24:21.276Z,1894.00
2023-05-12T06:25:21.489Z,1895.00
2023-05-12T06:26:21.222Z,1902.00
2023-05-12T06:27:21.202Z,1916.00
2023-05-12T06:28:21.195Z,1940.00
2023-05-12T06:29:21.175Z,2000.00
2023-05-12T06:30:21.179Z,2018.00
2023-05-12T06:31:21.167Z,2021.00
2023-05-12T06:32:21.249Z,2035.00
2023-05-12T06:33:21.134Z,2044.00
2023-05-12T06:34:21.127Z,2069.00
2023-05-12T06:35:21.256Z,2085.00
2023-05-12T06:36:21.106Z,2104.00
2023-05-12T06:37:21.102Z,2106.00
2023-05-12T06:38:21.239Z,2119.00
2023-05-12T06:39:21.082Z,2139.00
2023-05-12T06:40:21.071Z,2147.00
2023-05-12T06:41:21.064Z,2182.00
2023-05-12T06:42:21.023Z,2218.00
2023-05-12T06:43:21.451Z,2232.00
2023-05-12T06:44:20.983Z,2232.00
2023-05-12T06:45:21.349Z,2214.00
2023-05-12T06:46:21.001Z,2182.00
2023-05-12T06:47:21.086Z,2155.00
2023-05-12T06:48:20.930Z,2141.00
2023-05-12T06:49:20.926Z,2126.00
2023-05-12T06:50:20.927Z,2104.00
2023-05-12T06:51:20.964Z,2105.00
2023-05-12T06:52:20.923Z,2094.00
2023-05-12T06:53:21.801Z,2090.00
2023-05-12T06:54:20.928Z,2068.00
2023-05-12T06:55:21.348Z,2070.00
2023-05-12T06:56:20.931Z,2050.00
2023-05-12T06:57:20.936Z,2024.00
2023-05-12T06:58:21.535Z,2000.00
2023-05-12T06:59:21.420Z,2002.00
2023-05-12T07:00:20.950Z,2001.00
2023-05-12T07:01:20.979Z,2014.00
2023-05-12T07:02:20.992Z,1989.00
2023-05-12T07:03:21.167Z,1997.00
2023-05-12T07:04:20.989Z,1969.00
2023-05-12T07:05:21.522Z,1981.00
2023-05-12T07:06:21.046Z,1940.00
2023-05-12T07:07:21.019Z,1930.00
2023-05-12T07:08:21.032Z,1909.00
2023-05-12T07:09:21.053Z,1875.00
2023-05-12T07:10:21.984Z,1858.00
2023-05-12T07:11:21.045Z,1831.00
2023-05-12T07:12:21.085Z,1785.00
2023-05-12T07:13:21.076Z,1772.00
2023-05-12T07:14:21.067Z,1746.00
2023-05-12T07:15:21.330Z,1718.00
2023-05-12T07:16:21.089Z,1695.00
2023-05-12T07:17:21.104Z,1672.00
2023-05-12T07:18:21.131Z,1646.00
2023-05-12T07:19:21.107Z,1635.00
2023-05-12T07:20:21.106Z,1604.00
2023-05-12T07:21:21.117Z,1589.00
2023-05-12T07:22:21.146Z,1575.00
2023-05-12T07:23:21.141Z,1550.00
2023-05-12T07:24:21.145Z,1520.00
2023-05-12T07:25:21.418Z,1517.00
2023-05-12T07:26:21.150Z,1504.00
2023-05-12T07:27:21.179Z,1488.00
2023-05-12T07:28:21.161Z,1478.00
2023-05-12T07:29:21.167Z,1434.00
2023-05-12T07:30:21.203Z,1423.00
2023-05-12T07:31:21.213Z,1416.00
2023-05-12T07:32:21.197Z,1403.00
2023-05-12T07:33:21.209Z,1391.00
2023-05-12T07:34:21.192Z,1351.00
2023-05-12T07:35:21.409Z,1364.00
2023-05-12T07:36:22.068Z,1346.00
2023-05-12T07:37:21.257Z,1338.00
2023-05-12T07:38:21.267Z,1307.00
2023-05-12T07:39:21.259Z,1272.00
2023-05-12T07:40:21.285Z,1272.00
2023-05-12T07:41:21.296Z,1273.00
2023-05-12T07:42:21.306Z,1331.00
2023-05-12T07:43:21.366Z,1334.00
2023-05-12T07:44:28.395Z,1382.00
2023-05-12T07:45:21.573Z,1384.00
2023-05-12T07:46:21.532Z,1396.00
2023-05-12T07:47:21.299Z,1433.00
2023-05-12T07:48:21.293Z,1486.00
2023-05-12T07:49:21.266Z,1604.00
2023-05-12T07:50:21.265Z,1682.00
2023-05-12T07:51:21.231Z,1703.00
2023-05-12T07:52:21.202Z,1739.00
2023-05-12T07:53:21.190Z,1715.00
2023-05-12T07:54:21.261Z,1719.00
2023-05-12T07:55:21.620Z,1770.00
2023-05-12T07:56:21.111Z,1790.00
2023-05-12T07:57:21.205Z,1799.00
2023-05-12T07:58:21.122Z,1814.00
2023-05-12T07:59:21.068Z,1834.00
2023-05-12T08:00:21.038Z,1862.00
2023-05-12T08:01:21.030Z,1877.00
2023-05-12T08:02:21.518Z,1885.00
2023-05-12T08:03:21.119Z,1902.00
2023-05-12T08:04:21.008Z,1939.00
2023-05-12T08:05:21.386Z,1961.00
2023-05-12T08:06:20.912Z,1969.00
2023-05-12T08:07:20.903Z,1979.00
2023-05-12T08:08:20.881Z,1993.00
2023-05-12T08:09:20.848Z,2005.00
2023-05-12T08:10:20.821Z,2021.00
2023-05-12T08:11:20.860Z,2031.00
2023-05-12T08:12:20.814Z,2042.00
2023-05-12T08:13:20.792Z,2054.00
2023-05-12T08:14:20.809Z,2055.00
2023-05-12T08:15:21.089Z,2073.00
2023-05-12T08:16:20.759Z,2083.00
2023-05-12T08:17:20.697Z,2114.00
2023-05-12T08:18:20.963Z,2187.00
2023-05-12T08:19:20.650Z,2247.00
2023-05-12T08:20:20.685Z,2296.00
2023-05-12T08:21:20.758Z,2268.00
2023-05-12T08:22:20.755Z,2252.00
2023-05-12T08:23:20.791Z,2267.00
2023-05-12T08:24:20.826Z,2254.00
2023-05-12T08:25:21.115Z,2095.00
2023-05-12T08:26:25.444Z,2124.00
2023-05-12T08:27:20.878Z,1981.00
2023-05-12T08:28:20.831Z,1849.00
2023-05-12T08:29:20.811Z,1689.00
2023-05-12T08:30:21.542Z,1640.00
2023-05-12T08:31:20.834Z,1516.00
2023-05-12T08:32:20.803Z,1369.00
2023-05-12T08:33:20.746Z,1324.00
2023-05-12T08:34:20.792Z,1285.00
2023-05-12T08:35:20.920Z,1262.00
2023-05-12T08:36:20.638Z,1272.00
2023-05-12T08:37:20.677Z,1271.00
2023-05-12T08:38:20.616Z,1287.00
2023-05-12T08:39:20.578Z,1261.00
2023-05-12T08:40:20.614Z,1229.00
2023-05-12T08:41:20.593Z,1175.00
2023-05-12T08:42:20.651Z,1133.00
2023-05-12T08:43:20.733Z,1067.00
2023-05-12T08:44:20.756Z,1074.00
2023-05-12T08:45:21.103Z,812.00
2023-05-12T08:46:20.836Z,783.00
2023-05-12T08:47:20.810Z,721.00
2023-05-12T08:48:20.915Z,703.00
2023-05-12T08:49:21.526Z,642.00
2023-05-12T08:50:20.804Z,653.00
2023-05-12T08:51:20.826Z,669.00
2023-05-12T08:52:20.800Z,663.00
2023-05-12T08:53:20.839Z,699.00
2023-05-12T08:54:20.874Z,737.00
2023-05-12T08:55:21.190Z,791.00
2023-05-12T08:57:20.966Z,884.00
2023-05-12T08:58:30.494Z,908.00
2023-05-12T08:59:21.937Z,911.00
2023-05-12T09:00:21.177Z,921.00
2023-05-12T09:01:21.605Z,951.00
2023-05-12T09:02:21.203Z,998.00
2023-05-12T09:03:20.857Z,915.00
2023-05-12T09:04:20.874Z,943.00
2023-05-12T09:05:21.105Z,994.00
2023-05-12T09:06:20.944Z,1082.00
2023-05-12T09:07:20.724Z,1212.00
2023-05-12T09:08:20.696Z,1249.00
2023-05-12T09:09:20.845Z,1269.00
2023-05-12T09:10:33.533Z,1309.00
2023-05-12T09:11:21.690Z,1311.00
2023-05-12T09:12:20.845Z,1319.00
2023-05-12T09:13:20.780Z,1333.00
2023-05-12T09:14:20.632Z,1348.00
2023-05-12T09:15:20.680Z,1406.00
2023-05-12T09:16:20.609Z,1315.00
2023-05-12T09:17:20.638Z,1334.00
2023-05-12T09:18:20.600Z,1366.00
2023-05-12T09:19:20.618Z,1422.00
2023-05-12T09:20:30.332Z,1497.00
2023-05-12T09:21:21.473Z,1317.00
2023-05-12T09:22:20.450Z,1343.00
2023-05-12T09:23:20.449Z,1396.00
2023-05-12T09:24:20.415Z,1471.00
2023-05-12T09:25:21.214Z,1579.00
2023-05-12T09:26:20.382Z,1622.00
2023-05-12T09:27:20.351Z,1632.00
2023-05-12T09:28:20.389Z,1652.00
2023-05-12T09:29:30.638Z,1678.00
2023-05-12T09:30:20.324Z,1679.00
2023-05-12T09:31:20.367Z,1683.00
2023-05-12T09:32:20.262Z,1689.00
2023-05-12T09:33:20.223Z,1680.00
2023-05-12T09:34:20.231Z,1690.00
2023-05-12T09:35:20.406Z,1707.00
2023-05-12T09:36:20.199Z,1742.00
2023-05-12T09:37:20.196Z,1781.00
2023-05-12T09:38:21.217Z,1809.00
2023-05-12T09:39:20.145Z,1811.00
2023-05-12T09:40:21.075Z,1828.00
2023-05-12T09:41:20.072Z,1835.00
2023-05-12T09:42:20.088Z,1842.00
2023-05-12T09:43:20.039Z,1843.00
2023-05-12T09:44:20.021Z,1849.00
2023-05-12T09:45:20.120Z,1821.00
2023-05-12T09:46:20.006Z,1793.00
2023-05-12T09:47:19.922Z,1725.00
2023-05-12T09:48:20.049Z,1699.00
2023-05-12T09:49:20.016Z,1643.00
2023-05-12T09:50:19.920Z,1664.00
2023-05-12T09:51:19.794Z,1697.00
2023-05-12T09:52:20.643Z,1718.00
2023-05-12T09:53:19.831Z,1722.00
2023-05-12T09:54:19.777Z,1718.00
2023-05-12T09:55:19.970Z,1728.00
2023-05-12T09:56:19.691Z,1724.00
2023-05-12T09:57:19.664Z,1746.00
2023-05-12T09:58:19.633Z,1762.00
2023-05-12T09:59:19.587Z,1771.00
2023-05-12T10:00:34.648Z,1803.00
2023-05-12T10:01:23.419Z,1804.00
2023-05-12T10:02:19.541Z,1806.00
2023-05-12T10:03:19.506Z,1813.00
2023-05-12T10:04:19.505Z,1836.00
2023-05-12T10:05:19.676Z,1862.00
2023-05-12T10:06:20.115Z,1893.00
2023-05-12T10:07:19.377Z,1921.00
2023-05-12T10:08:19.394Z,1937.00
2023-05-12T10:09:19.415Z,1936.00
2023-05-12T10:10:20.305Z,1953.00
2023-05-12T10:11:19.266Z,1968.00
2023-05-12T10:12:19.269Z,1968.00
2023-05-12T10:13:19.243Z,1989.00
2023-05-12T10:14:19.392Z,2003.00
2023-05-12T10:15:19.384Z,2025.00
2023-05-12T10:16:19.168Z,2037.00
2023-05-12T10:17:19.101Z,2040.00
2023-05-12T10:18:19.197Z,2046.00
2023-05-12T10:19:19.050Z,2063.00
2023-05-12T10:20:19.040Z,2080.00
2023-05-12T10:21:19.390Z,2042.00
2023-05-12T10:22:18.989Z,2055.00
2023-05-12T10:23:18.944Z,2081.00
2023-05-12T10:24:18.937Z,2043.00
2023-05-12T10:25:19.160Z,2061.00
2023-05-12T10:26:18.845Z,2093.00
2023-05-12T10:27:18.838Z,2145.00
2023-05-12T10:28:18.817Z,2209.00
2023-05-12T10:29:18.781Z,2219.00
2023-05-12T10:30:18.750Z,2211.00
2023-05-12T10:31:18.767Z,2199.00
2023-05-12T10:32:18.715Z,2200.00
2023-05-12T10:33:18.660Z,2189.00
2023-05-12T10:34:18.687Z,2195.00
2023-05-12T10:35:18.764Z,2186.00
2023-05-12T10:36:18.635Z,2203.00
2023-05-12T10:37:18.608Z,2215.00
2023-05-12T10:38:18.506Z,2165.00
2023-05-12T10:39:18.503Z,2124.00
2023-05-12T10:40:18.442Z,2060.00
2023-05-12T10:41:18.434Z,2026.00
2023-05-12T10:42:19.214Z,2001.00
2023-05-12T10:43:18.343Z,2020.00
2023-05-12T10:44:18.531Z,1904.00
2023-05-12T10:45:18.409Z,1799.00
2023-05-12T10:46:18.330Z,1625.00
2023-05-12T10:47:18.219Z,1590.00
2023-05-12T10:48:18.233Z,1552.00
2023-05-12T10:49:18.121Z,1549.00
2023-05-12T10:50:18.117Z,1547.00
2023-05-12T10:51:18.049Z,1534.00
2023-05-12T10:52:18.990Z,1545.00
2023-05-12T10:53:17.994Z,1544.00
2023-05-12T10:54:18.127Z,1574.00
2023-05-12T10:55:17.966Z,1655.00
2023-05-12T10:56:18.219Z,1654.00
2023-05-12T10:57:19.279Z,1638.00
2023-05-12T10:58:18.311Z,1620.00
2023-05-12T10:59:18.385Z,1665.00
2023-05-12T11:00:18.420Z,1675.00
2023-05-12T11:01:18.178Z,1727.00
2023-05-12T11:02:18.436Z,1749.00
2023-05-12T11:03:19.945Z,1783.00
2023-05-12T11:04:18.760Z,1811.00
2023-05-12T11:05:18.123Z,1820.00
2023-05-12T11:06:17.940Z,1851.00
2023-05-12T11:08:18.154Z,1824.00
2023-05-12T11:09:18.112Z,1874.00
2023-05-12T11:10:18.335Z,1852.00
2023-05-12T11:11:18.178Z,1833.00
2023-05-12T11:12:18.112Z,1863.00
2023-05-12T11:13:17.748Z,1865.00
2023-05-12T11:14:17.771Z,1882.00
2023-05-12T11:15:18.220Z,1878.00
2023-05-12T11:16:17.868Z,1890.00
2023-05-12T11:17:17.815Z,1931.00
2023-05-12T11:18:17.850Z,1920.00
2023-05-12T11:19:17.849Z,1939.00
2023-05-12T11:20:17.892Z,1937.00
2023-05-12T11:21:17.933Z,1948.00
2023-05-12T11:22:18.575Z,1961.00
2023-05-12T11:23:18.014Z,1978.00
2023-05-12T11:24:17.996Z,1989.00
2023-05-12T11:25:18.230Z,2004.00
2023-05-12T11:26:18.031Z,2038.00
2023-05-12T11:27:18.066Z,2061.00
2023-05-12T11:28:18.439Z,2061.00
2023-05-12T11:29:18.000Z,2062.00
2023-05-12T11:30:18.017Z,2062.00
2023-05-12T11:31:18.003Z,2062.00
2023-05-12T11:32:18.005Z,1992.00
2023-05-12T11:33:17.869Z,2019.00
2023-05-12T11:34:17.865Z,1917.00
2023-05-12T11:35:17.842Z,1861.00
2023-05-12T11:36:18.239Z,1805.00
2023-05-12T11:37:17.776Z,1826.00
2023-05-12T11:38:17.734Z,1834.00
2023-05-12T11:39:17.716Z,1801.00
2023-05-12T11:40:17.686Z,1758.00
2023-05-12T11:41:17.633Z,1721.00
2023-05-12T11:42:20.103Z,1717.00
2023-05-12T11:43:17.584Z,1723.00
2023-05-12T11:44:17.632Z,1679.00
2023-05-12T11:45:17.620Z,1653.00
2023-05-12T11:46:17.728Z,1632.00
2023-05-12T11:47:17.500Z,1608.00
2023-05-12T11:48:17.497Z,1585.00
2023-05-12T11:49:17.449Z,1572.00
2023-05-12T11:50:17.417Z,1562.00
2023-05-12T11:51:17.386Z,1539.00
2023-05-12T11:52:17.364Z,1528.00
2023-05-12T11:53:17.411Z,1518.00
2023-05-12T11:54:17.361Z,1482.00
2023-05-12T11:55:17.407Z,1471.00
2023-05-12T11:56:17.320Z,1437.00
2023-05-12T11:57:17.244Z,1419.00
2023-05-12T11:58:17.248Z,1394.00
2023-05-12T11:59:17.216Z,1393.00
2023-05-12T12:00:17.235Z,1380.00
2023-05-12T12:01:17.149Z,1350.00
2023-05-12T12:02:17.183Z,1338.00
2023-05-12T12:03:17.283Z,1322.00
2023-05-12T12:04:17.102Z,1311.00
2023-05-12T12:05:17.029Z,1306.00
2023-05-12T12:06:16.994Z,1286.00
2023-05-12T12:07:16.979Z,1273.00
2023-05-12T12:08:16.934Z,1274.00
2023-05-12T12:09:16.892Z,1245.00
2023-05-12T12:10:16.936Z,1233.00
2023-05-12T12:11:16.844Z,1230.00
2023-05-12T12:12:16.825Z,1220.00
2023-05-12T12:13:16.790Z,1211.00
2023-05-12T12:14:16.800Z,1208.00
2023-05-12T12:15:16.754Z,1184.00
2023-05-12T12:16:16.724Z,1182.00
2023-05-12T12:17:16.677Z,1179.00
2023-05-12T12:18:16.833Z,1157.00
2023-05-12T12:19:16.599Z,1153.00
2023-05-12T12:20:16.553Z,1140.00
2023-05-12T12:21:18.384Z,1161.00
2023-05-12T12:22:16.474Z,1132.00